createdAt,value
2023-03-22T00:00:24.781Z,100676.88
2023-03-22T00:01:40.543Z,100684.75
2023-03-22T00:02:45.917Z,100680.44
2023-03-22T00:03:50.275Z,100673.50
2023-03-22T00:04:55.115Z,100674.41
2023-03-22T00:05:59.835Z,100672.72
2023-03-22T00:07:01.461Z,100667.50
2023-03-22T00:08:09.582Z,100681.50
2023-03-22T00:09:12.489Z,100672.78
2023-03-22T00:10:18.448Z,100684.13
2023-03-22T00:11:21.015Z,100677.19
2023-03-22T00:12:24.788Z,100683.31
2023-03-22T00:13:26.332Z,100679.84
2023-03-22T00:14:34.942Z,100672.88
2023-03-22T00:15:36.439Z,100672.03
2023-03-22T00:16:38.132Z,100671.19
2023-03-22T00:17:42.034Z,100661.59
2023-03-22T00:18:49.817Z,100666.81
2023-03-22T00:19:54.416Z,100665.09
2023-03-22T00:20:57.162Z,100662.47
2023-03-22T00:22:01.620Z,100655.50
2023-03-22T00:23:11.111Z,100658.97
2023-03-22T00:24:14.532Z,100654.63
2023-03-22T00:25:16.254Z,100657.22
2023-03-22T00:26:22.719Z,100658.09
2023-03-22T00:27:26.811Z,100652.84
2023-03-22T00:28:33.031Z,100646.75
2023-03-22T00:29:34.597Z,100648.47
2023-03-22T00:30:36.158Z,100650.19
2023-03-22T00:31:37.660Z,100644.06
2023-03-22T00:32:39.366Z,100643.19
2023-03-22T00:33:40.774Z,100639.69
2023-03-22T00:34:43.272Z,100643.09
2023-03-22T00:35:54.808Z,100630.91
2023-03-22T00:36:56.483Z,100637.81
2023-03-22T00:38:05.897Z,100639.53
2023-03-22T00:39:09.867Z,100642.13
2023-03-22T00:40:13.175Z,100641.22
2023-03-22T00:41:16.339Z,100643.78
2023-03-22T00:42:19.068Z,100641.19
2023-03-22T00:43:24.066Z,100636.81
2023-03-22T00:44:26.017Z,100634.16
2023-03-22T00:45:29.300Z,100635.91
2023-03-22T00:46:31.243Z,100638.50
2023-03-22T00:47:32.783Z,100635.00
2023-03-22T00:48:39.976Z,100632.38
2023-03-22T00:49:41.367Z,100632.38
2023-03-22T00:50:42.887Z,100621.06
2023-03-22T00:51:54.950Z,100624.56
2023-03-22T00:52:58.451Z,100634.13
2023-03-22T00:53:59.945Z,100626.31
2023-03-22T00:55:01.665Z,100625.47
2023-03-22T00:56:05.579Z,100624.59
2023-03-22T00:57:16.172Z,100622.91
2023-03-22T00:58:17.725Z,100622.88
2023-03-22T00:59:19.637Z,100620.31
2023-03-22T01:00:21.443Z,100616.84
2023-03-22T01:01:24.007Z,100622.94
2023-03-22T01:02:30.387Z,100623.84
2023-03-22T01:03:33.921Z,100632.56
2023-03-22T01:04:36.174Z,100626.47
2023-03-22T01:05:39.018Z,100621.25
2023-03-22T01:06:42.246Z,100619.50
2023-03-22T01:07:53.258Z,100623.84
2023-03-22T01:08:55.195Z,100624.69
2023-03-22T01:10:00.604Z,100624.69
2023-03-22T01:11:08.517Z,100620.31
2023-03-22T01:12:13.396Z,100622.06
2023-03-22T01:13:17.548Z,100621.19
2023-03-22T01:14:19.607Z,100616.00
2023-03-22T01:15:22.557Z,100615.09
2023-03-22T01:16:25.836Z,100610.78
2023-03-22T01:17:27.859Z,100614.25
2023-03-22T01:18:29.763Z,100615.13
2023-03-22T01:19:31.439Z,100610.78
2023-03-22T01:20:33.195Z,100609.09
2023-03-22T01:21:34.758Z,100604.75
2023-03-22T01:22:36.302Z,100609.94
2023-03-22T01:23:39.142Z,100601.28
2023-03-22T01:24:44.177Z,100589.97
2023-03-22T01:25:46.584Z,100597.81
2023-03-22T01:26:51.539Z,100594.38
2023-03-22T01:27:55.365Z,100597.91
2023-03-22T01:28:56.858Z,100594.41
2023-03-22T01:29:59.889Z,100584.84
2023-03-22T01:31:04.661Z,100593.53
2023-03-22T01:32:09.311Z,100596.13
2023-03-22T01:33:11.927Z,100594.41
2023-03-22T01:34:14.022Z,100591.78
2023-03-22T01:35:18.913Z,100588.31
2023-03-22T01:36:20.796Z,100587.41
2023-03-22T01:37:25.449Z,100585.69
2023-03-22T01:38:29.202Z,100589.19
2023-03-22T01:39:33.836Z,100589.19
2023-03-22T01:40:39.992Z,100590.91
2023-03-22T01:41:42.712Z,100590.06
2023-03-22T01:42:55.469Z,100583.97
2023-03-22T01:44:09.734Z,100589.19
2023-03-22T01:45:16.585Z,100583.09
2023-03-22T01:46:19.398Z,100574.38
2023-03-22T01:47:20.892Z,100571.75
2023-03-22T01:48:22.844Z,100566.53
2023-03-22T01:49:27.791Z,100567.38
2023-03-22T01:50:29.927Z,100560.44
2023-03-22T01:51:32.663Z,100560.44
2023-03-22T01:52:55.849Z,100556.94
2023-03-22T01:54:15.751Z,100559.53
2023-03-22T01:55:18.264Z,100551.69
2023-03-22T01:56:25.745Z,100553.47
2023-03-22T01:57:27.985Z,100548.22
2023-03-22T01:58:31.604Z,100549.97
2023-03-22T01:59:36.551Z,100549.06
2023-03-22T02:00:52.134Z,100548.22
2023-03-22T02:02:23.217Z,100546.47
2023-03-22T02:03:42.591Z,100551.69
2023-03-22T02:04:50.903Z,100544.75
2023-03-22T02:05:54.445Z,100547.34
2023-03-22T02:06:59.047Z,100543.88
2023-03-22T02:08:05.162Z,100548.22
2023-03-22T02:09:26.138Z,100540.41
2023-03-22T02:10:30.429Z,100542.16
2023-03-22T02:11:41.552Z,100538.63
2023-03-22T02:13:17.619Z,100539.53
2023-03-22T02:14:58.524Z,100543.00
2023-03-22T02:16:40.265Z,100536.91
2023-03-22T02:17:46.334Z,100543.00
2023-03-22T02:18:57.742Z,100541.25
2023-03-22T02:20:25.168Z,100540.41
2023-03-22T02:21:36.447Z,100542.13
2023-03-22T02:22:39.178Z,100528.19
2023-03-22T02:23:40.611Z,100539.50
2023-03-22T02:25:01.237Z,100540.34
2023-03-22T02:26:19.055Z,100537.69
2023-03-22T02:27:30.771Z,100534.19
2023-03-22T02:28:35.104Z,100536.78
2023-03-22T02:29:52.767Z,100540.25
2023-03-22T02:31:06.026Z,100535.88
2023-03-22T02:32:37.071Z,100533.22
2023-03-22T02:33:51.689Z,100535.84
2023-03-22T02:35:05.683Z,100535.84
2023-03-22T02:36:16.705Z,100538.41
2023-03-22T02:37:36.269Z,100536.69
2023-03-22T02:38:42.482Z,100534.94
2023-03-22T02:40:01.358Z,100534.91
2023-03-22T02:41:11.211Z,100532.28
2023-03-22T02:42:31.194Z,100531.44
2023-03-22T02:43:46.214Z,100527.06
2023-03-22T02:44:59.346Z,100523.59
2023-03-22T02:46:07.965Z,100522.72
2023-03-22T02:47:13.488Z,100522.72
2023-03-22T02:48:39.281Z,100523.59
2023-03-22T02:49:45.967Z,100521.03
2023-03-22T02:50:52.072Z,100525.34
2023-03-22T02:51:58.492Z,100525.34
2023-03-22T02:53:06.655Z,100521.00
2023-03-22T02:54:11.187Z,100523.59
2023-03-22T02:55:15.566Z,100518.38
2023-03-22T02:56:34.074Z,100515.75
2023-03-22T02:57:48.578Z,100516.66
2023-03-22T02:58:54.510Z,100521.88
2023-03-22T02:59:58.877Z,100510.56
2023-03-22T03:01:05.757Z,100515.81
2023-03-22T03:02:13.059Z,100513.22
2023-03-22T03:03:19.025Z,100510.59
2023-03-22T03:04:22.528Z,100513.19
2023-03-22T03:05:29.837Z,100514.06
2023-03-22T03:06:33.503Z,100508.00
2023-03-22T03:07:38.701Z,100509.72
2023-03-22T03:08:41.126Z,100499.31
2023-03-22T03:09:44.701Z,100503.69
2023-03-22T03:10:48.157Z,100500.16
2023-03-22T03:11:54.259Z,100504.53
2023-03-22T03:12:56.499Z,100499.34
2023-03-22T03:13:58.231Z,100502.78
2023-03-22T03:14:59.819Z,100501.88
2023-03-22T03:16:04.007Z,100501.84
2023-03-22T03:17:11.969Z,100495.78
2023-03-22T03:18:35.606Z,100498.34
2023-03-22T03:19:45.865Z,100499.22
2023-03-22T03:20:50.993Z,100494.81
2023-03-22T03:22:07.896Z,100484.34
2023-03-22T03:23:31.242Z,100491.25
2023-03-22T03:24:40.032Z,100486.88
2023-03-22T03:26:12.922Z,100480.75
2023-03-22T03:27:22.990Z,100484.22
2023-03-22T03:28:30.350Z,100484.22
2023-03-22T03:29:38.022Z,100484.22
2023-03-22T03:30:45.046Z,100488.53
2023-03-22T03:31:57.927Z,100486.78
2023-03-22T03:33:02.150Z,100483.31
2023-03-22T03:34:25.648Z,100490.22
2023-03-22T03:35:34.588Z,100486.72
2023-03-22T03:36:39.414Z,100485.84
2023-03-22T03:37:47.310Z,100480.59
2023-03-22T03:38:54.509Z,100484.94
2023-03-22T03:40:01.357Z,100481.41
2023-03-22T03:41:22.341Z,100479.69
2023-03-22T03:42:29.888Z,100486.59
2023-03-22T03:43:32.513Z,100484.00
2023-03-22T03:44:36.097Z,100486.56
2023-03-22T03:45:39.624Z,100483.97
2023-03-22T03:46:44.072Z,100478.72
2023-03-22T03:47:47.143Z,100478.72
2023-03-22T03:48:52.863Z,100479.53
2023-03-22T03:49:56.699Z,100476.88
2023-03-22T03:51:01.407Z,100480.38
2023-03-22T03:52:04.380Z,100477.72
2023-03-22T03:53:06.214Z,100475.09
2023-03-22T03:54:08.729Z,100482.03
2023-03-22T03:55:10.388Z,100475.06
2023-03-22T03:56:12.003Z,100478.50
2023-03-22T03:57:19.215Z,100474.16
2023-03-22T03:58:20.753Z,100475.91
2023-03-22T03:59:25.546Z,100475.91
2023-03-22T04:00:29.758Z,100473.28
2023-03-22T04:01:50.503Z,100487.19
2023-03-22T04:02:56.007Z,100470.63
2023-03-22T04:04:17.011Z,100480.22
2023-03-22T04:05:25.431Z,100477.59
2023-03-22T04:06:31.433Z,100475.91
2023-03-22T04:07:37.553Z,100479.38
2023-03-22T04:08:39.130Z,100473.28
2023-03-22T04:09:41.327Z,100478.50
2023-03-22T04:11:02.098Z,100479.38
2023-03-22T04:12:05.402Z,100476.78
2023-03-22T04:13:07.696Z,100473.28
2023-03-22T04:14:11.766Z,100471.56
2023-03-22T04:15:13.875Z,100474.16
2023-03-22T04:16:17.566Z,100468.06
2023-03-22T04:17:19.096Z,100473.28
2023-03-22T04:18:25.955Z,100475.91
2023-03-22T04:19:29.318Z,100471.56
2023-03-22T04:20:33.626Z,100476.78
2023-03-22T04:21:35.348Z,100469.81
2023-03-22T04:22:41.026Z,100472.41
2023-03-22T04:23:43.146Z,100468.94
2023-03-22T04:24:50.374Z,100476.78
2023-03-22T04:25:54.747Z,100466.38
2023-03-22T04:27:10.517Z,100469.81
2023-03-22T04:28:33.288Z,100467.22
2023-03-22T04:29:36.267Z,100474.16
2023-03-22T04:30:57.826Z,100471.59
2023-03-22T04:32:28.783Z,100468.94
2023-03-22T04:33:35.983Z,100470.69
2023-03-22T04:34:52.800Z,100463.72
2023-03-22T04:35:57.326Z,100460.22
2023-03-22T04:37:06.256Z,100463.72
2023-03-22T04:38:12.024Z,100468.09
2023-03-22T04:39:18.469Z,100459.41
2023-03-22T04:40:31.695Z,100466.41
2023-03-22T04:41:37.265Z,100462.03
2023-03-22T04:42:39.123Z,100468.13
2023-03-22T04:43:54.131Z,100457.69
2023-03-22T04:44:55.586Z,100461.16
2023-03-22T04:46:01.259Z,100452.44
2023-03-22T04:47:11.262Z,100449.00
2023-03-22T04:48:13.587Z,100450.72
2023-03-22T04:49:25.335Z,100462.06
2023-03-22T04:50:28.593Z,100453.34
2023-03-22T04:51:34.614Z,100454.19
2023-03-22T04:52:54.429Z,100447.22
2023-03-22T04:53:59.770Z,100441.97
2023-03-22T04:55:01.530Z,100448.91
2023-03-22T04:56:10.759Z,100450.66
2023-03-22T04:57:13.241Z,100442.81
2023-03-22T04:58:22.282Z,100445.38
2023-03-22T04:59:27.495Z,100443.63
2023-03-22T05:00:30.373Z,100448.00
2023-03-22T05:01:38.193Z,100446.25
2023-03-22T05:02:46.072Z,100447.97
2023-03-22T05:04:08.123Z,100445.34
2023-03-22T05:05:11.330Z,100434.88
2023-03-22T05:06:15.434Z,100446.16
2023-03-22T05:07:26.143Z,100442.69
2023-03-22T05:08:31.521Z,100439.19
2023-03-22T05:09:34.523Z,100436.56
2023-03-22T05:10:39.413Z,100436.56
2023-03-22T05:11:42.816Z,100439.16
2023-03-22T05:13:02.309Z,100439.16
2023-03-22T05:14:09.060Z,100434.78
2023-03-22T05:15:11.564Z,100440.00
2023-03-22T05:16:14.250Z,100439.16
2023-03-22T05:17:26.554Z,100436.53
2023-03-22T05:18:32.971Z,100445.22
2023-03-22T05:19:34.551Z,100429.56
2023-03-22T05:20:37.241Z,100434.78
2023-03-22T05:22:01.815Z,100435.69
2023-03-22T05:23:21.076Z,100433.88
2023-03-22T05:24:26.346Z,100433.03
2023-03-22T05:25:29.916Z,100430.41
2023-03-22T05:26:31.418Z,100433.88
2023-03-22T05:27:35.248Z,100433.00
2023-03-22T05:28:59.684Z,100437.34
2023-03-22T05:30:16.489Z,100437.34
2023-03-22T05:31:24.606Z,100442.53
2023-03-22T05:32:31.236Z,100446.00
2023-03-22T05:33:34.709Z,100440.72
2023-03-22T05:34:37.381Z,100445.13
2023-03-22T05:35:52.764Z,100448.53
2023-03-22T05:36:56.787Z,100445.03
2023-03-22T05:38:09.497Z,100445.00
2023-03-22T05:39:16.207Z,100443.28
2023-03-22T05:40:19.335Z,100447.59
2023-03-22T05:41:21.453Z,100449.31
2023-03-22T05:42:22.927Z,100444.97
2023-03-22T05:43:33.085Z,100448.47
2023-03-22T05:44:34.769Z,100445.81
2023-03-22T05:45:41.954Z,100446.66
2023-03-22T05:47:02.210Z,100449.25
2023-03-22T05:48:20.412Z,100445.75
2023-03-22T05:49:22.545Z,100443.13
2023-03-22T05:50:26.785Z,100438.72
2023-03-22T05:51:30.701Z,100439.56
2023-03-22T05:52:32.980Z,100438.72
2023-03-22T05:53:57.465Z,100440.38
2023-03-22T05:55:10.055Z,100450.81
2023-03-22T05:56:15.813Z,100449.91
2023-03-22T05:57:21.670Z,100435.97
2023-03-22T05:58:24.424Z,100442.03
2023-03-22T05:59:27.676Z,100438.53
2023-03-22T06:00:34.081Z,100433.31
2023-03-22T06:01:54.359Z,100450.72
2023-03-22T06:03:05.204Z,100438.50
2023-03-22T06:04:14.184Z,100440.19
2023-03-22T06:05:36.589Z,100439.31
2023-03-22T06:06:39.446Z,100441.00
2023-03-22T06:08:00.952Z,100437.47
2023-03-22T06:09:15.957Z,100433.97
2023-03-22T06:10:20.124Z,100427.81
2023-03-22T06:11:23.015Z,100428.66
2023-03-22T06:12:27.173Z,100433.84
2023-03-22T06:13:39.967Z,100445.19
2023-03-22T06:14:42.559Z,100432.97
2023-03-22T06:16:08.398Z,100430.28
2023-03-22T06:17:12.113Z,100432.00
2023-03-22T06:18:14.191Z,100427.63
2023-03-22T06:19:24.870Z,100427.59
2023-03-22T06:20:42.154Z,100423.16
2023-03-22T06:21:55.791Z,100419.63
2023-03-22T06:23:02.520Z,100422.19
2023-03-22T06:24:06.134Z,100423.94
2023-03-22T06:25:11.562Z,100423.03
2023-03-22T06:26:17.513Z,100422.13
2023-03-22T06:27:22.019Z,100424.69
2023-03-22T06:28:23.720Z,100415.06
2023-03-22T06:29:34.246Z,100419.41
2023-03-22T06:30:41.569Z,100416.72
2023-03-22T06:32:10.700Z,100414.06
2023-03-22T06:33:13.010Z,100417.53
2023-03-22T06:34:18.764Z,100420.94
2023-03-22T06:35:21.919Z,100420.88
2023-03-22T06:36:29.310Z,100420.81
2023-03-22T06:37:40.543Z,100425.13
2023-03-22T06:38:43.025Z,100430.34
2023-03-22T06:39:48.133Z,100419.81
2023-03-22T06:40:49.950Z,100424.13
2023-03-22T06:41:53.350Z,100425.84
2023-03-22T06:42:57.695Z,100423.16
2023-03-22T06:44:02.621Z,100423.13
2023-03-22T06:45:17.930Z,100426.56
2023-03-22T06:46:20.540Z,100435.19
2023-03-22T06:47:38.218Z,100437.78
2023-03-22T06:48:50.967Z,100439.47
2023-03-22T06:49:52.535Z,100439.41
2023-03-22T06:51:01.165Z,100434.16
2023-03-22T06:52:11.061Z,100437.59
2023-03-22T06:53:15.290Z,100443.66
2023-03-22T06:54:18.585Z,100429.66
2023-03-22T06:55:22.863Z,100440.97
2023-03-22T06:56:30.531Z,100433.91
2023-03-22T06:57:35.879Z,100425.22
2023-03-22T06:58:37.906Z,100433.84
2023-03-22T06:59:42.292Z,100428.59
2023-03-22T07:00:43.963Z,100431.22
2023-03-22T07:01:46.132Z,100424.19
2023-03-22T07:02:49.931Z,100424.16
2023-03-22T07:04:01.165Z,100429.34
2023-03-22T07:05:02.613Z,100426.72
2023-03-22T07:06:05.509Z,100418.00
2023-03-22T07:07:11.093Z,100424.94
2023-03-22T07:08:12.828Z,100422.34
2023-03-22T07:09:25.126Z,100430.94
2023-03-22T07:10:31.431Z,100429.16
2023-03-22T07:11:39.012Z,100429.16
2023-03-22T07:12:40.617Z,100429.13
2023-03-22T07:13:46.699Z,100436.06
2023-03-22T07:14:53.207Z,100434.28
2023-03-22T07:16:19.427Z,100425.56
2023-03-22T07:17:38.744Z,100422.97
2023-03-22T07:18:40.806Z,100422.03
2023-03-22T07:19:45.785Z,100420.28
2023-03-22T07:20:49.887Z,100428.09
2023-03-22T07:21:51.335Z,100425.50
2023-03-22T07:22:52.912Z,100423.72
2023-03-22T07:24:00.916Z,100423.72
2023-03-22T07:25:05.959Z,100419.38
2023-03-22T07:26:10.526Z,100413.25
2023-03-22T07:27:14.346Z,100406.25
2023-03-22T07:28:15.873Z,100411.47
2023-03-22T07:29:18.972Z,100404.44
2023-03-22T07:30:22.931Z,100406.16
2023-03-22T07:31:26.236Z,100400.94
2023-03-22T07:32:33.883Z,100409.59
2023-03-22T07:33:41.284Z,100403.47
2023-03-22T07:34:45.742Z,100396.44
2023-03-22T07:35:53.056Z,100402.53
2023-03-22T07:36:57.809Z,100391.16
2023-03-22T07:38:01.768Z,100390.28
2023-03-22T07:39:06.466Z,100394.63
2023-03-22T07:40:12.404Z,100393.78
2023-03-22T07:41:14.198Z,100389.38
2023-03-22T07:42:31.148Z,100397.25
2023-03-22T07:43:58.360Z,100389.28
2023-03-22T07:45:06.993Z,100391.06
2023-03-22T07:46:21.842Z,100396.31
2023-03-22T07:47:55.379Z,100391.88
2023-03-22T07:49:17.776Z,100393.56
2023-03-22T07:50:37.253Z,100398.69
2023-03-22T07:51:40.987Z,100389.09
2023-03-22T07:52:42.818Z,100390.78
2023-03-22T07:53:46.084Z,100393.34
2023-03-22T07:54:50.710Z,100385.44
2023-03-22T07:55:53.040Z,100378.44
2023-03-22T07:56:54.747Z,100378.38
2023-03-22T07:57:56.556Z,100374.88
2023-03-22T07:58:59.219Z,100362.63
2023-03-22T08:00:00.979Z,100366.13
2023-03-22T08:01:17.321Z,100366.06
2023-03-22T08:02:31.799Z,100359.94
2023-03-22T08:03:36.100Z,100359.88
2023-03-22T08:04:45.054Z,100356.38
2023-03-22T08:06:08.867Z,100356.34
2023-03-22T08:07:14.074Z,100355.44
2023-03-22T08:08:16.095Z,100347.63
2023-03-22T08:09:20.176Z,100344.97
2023-03-22T08:10:22.517Z,100342.34
2023-03-22T08:11:26.210Z,100338.81
2023-03-22T08:12:31.074Z,100335.31
2023-03-22T08:13:41.024Z,100328.38
2023-03-22T08:14:51.056Z,100329.28
2023-03-22T08:15:56.697Z,100327.50
2023-03-22T08:16:59.065Z,100342.34
2023-03-22T08:18:00.656Z,100328.38
2023-03-22T08:19:13.980Z,100337.94
2023-03-22T08:20:19.729Z,100328.34
2023-03-22T08:21:30.495Z,100327.44
2023-03-22T08:22:32.948Z,100330.03
2023-03-22T08:23:56.558Z,100333.47
2023-03-22T08:25:16.378Z,100318.59
2023-03-22T08:26:19.481Z,100318.59
2023-03-22T08:27:21.538Z,100318.59
2023-03-22T08:28:26.238Z,100317.66
2023-03-22T08:29:34.017Z,100311.56
2023-03-22T08:30:37.307Z,100325.47
2023-03-22T08:31:39.499Z,100317.59
2023-03-22T08:32:47.442Z,100307.97
2023-03-22T08:33:51.152Z,100304.38
2023-03-22T08:34:53.801Z,100302.63
2023-03-22T08:36:13.651Z,100306.97
2023-03-22T08:37:24.079Z,100294.66
2023-03-22T08:38:31.424Z,100293.72
2023-03-22T08:39:35.411Z,100291.91
2023-03-22T08:41:00.077Z,100278.75
2023-03-22T08:42:02.044Z,100287.41
2023-03-22T08:43:07.856Z,100284.75
2023-03-22T08:44:15.261Z,100276.81
2023-03-22T08:45:17.003Z,100287.19
2023-03-22T08:46:33.718Z,100295.78
2023-03-22T08:47:37.032Z,100291.28
2023-03-22T08:48:51.840Z,100287.66
2023-03-22T08:50:00.149Z,100285.69
2023-03-22T08:51:22.894Z,100294.22
2023-03-22T08:52:42.039Z,100285.22
2023-03-22T08:53:52.014Z,100288.50
2023-03-22T08:55:20.026Z,100291.75
2023-03-22T08:56:59.554Z,100275.72
2023-03-22T08:58:22.269Z,100281.63
2023-03-22T08:59:31.731Z,100284.09
2023-03-22T09:00:52.637Z,100288.31
2023-03-22T09:02:14.866Z,100284.75
2023-03-22T09:03:17.355Z,100285.50
2023-03-22T09:04:19.504Z,100280.19
2023-03-22T09:05:22.595Z,100280.94
2023-03-22T09:06:28.774Z,100284.38
2023-03-22T09:07:34.077Z,100279.91
2023-03-22T09:08:53.756Z,100284.19
2023-03-22T09:09:58.683Z,100291.13
2023-03-22T09:11:00.873Z,100285.75
2023-03-22T09:12:07.365Z,100280.38
2023-03-22T09:13:13.428Z,100277.63
2023-03-22T09:14:20.409Z,100272.25
2023-03-22T09:15:22.924Z,100274.81
2023-03-22T09:16:41.437Z,100272.97
2023-03-22T09:17:42.888Z,100269.38
2023-03-22T09:18:44.794Z,100273.63
2023-03-22T09:19:55.674Z,100277.13
2023-03-22T09:21:07.338Z,100275.22
2023-03-22T09:22:23.404Z,100274.38
2023-03-22T09:23:25.364Z,100275.16
2023-03-22T09:24:30.315Z,100273.41
2023-03-22T09:25:35.331Z,100268.09
2023-03-22T09:26:39.751Z,100272.44
2023-03-22T09:27:43.028Z,100274.94
2023-03-22T09:28:47.738Z,100262.59
2023-03-22T09:29:51.703Z,100264.25
2023-03-22T09:30:53.486Z,100261.50
2023-03-22T09:31:55.665Z,100268.38
2023-03-22T09:33:06.727Z,100251.56
2023-03-22T09:34:08.895Z,100250.53
2023-03-22T09:35:10.858Z,100251.28
2023-03-22T09:36:35.986Z,100253.72
2023-03-22T09:37:37.514Z,100253.59
2023-03-22T09:38:41.388Z,100251.78
2023-03-22T09:39:46.394Z,100250.81
2023-03-22T09:41:00.422Z,100249.88
2023-03-22T09:42:15.700Z,100257.63
2023-03-22T09:43:21.043Z,100253.06
2023-03-22T09:44:43.076Z,100251.19
2023-03-22T09:45:52.320Z,100244.03
2023-03-22T09:46:57.686Z,100250.00
2023-03-22T09:47:59.980Z,100241.00
2023-03-22T09:49:06.110Z,100238.25
2023-03-22T09:50:15.829Z,100235.44
2023-03-22T09:51:26.508Z,100241.44
2023-03-22T09:52:31.397Z,100242.16
2023-03-22T09:53:36.306Z,100238.63
2023-03-22T09:54:39.236Z,100242.88
2023-03-22T09:55:55.834Z,100236.72
2023-03-22T09:56:57.356Z,100234.00
2023-03-22T09:58:20.387Z,100235.78
2023-03-22T09:59:35.041Z,100233.09
2023-03-22T10:00:39.785Z,100234.88
2023-03-22T10:01:46.139Z,100233.09
2023-03-22T10:02:48.090Z,100234.88
2023-03-22T10:04:11.534Z,100231.31
2023-03-22T10:05:36.286Z,100235.66
2023-03-22T10:06:40.270Z,100233.03
2023-03-22T10:07:50.204Z,100236.41
2023-03-22T10:08:57.436Z,100231.91
2023-03-22T10:10:12.994Z,100233.50
2023-03-22T10:11:23.532Z,100233.31
2023-03-22T10:12:27.753Z,100227.88
2023-03-22T10:13:34.201Z,100226.00
2023-03-22T10:14:39.181Z,100228.47
2023-03-22T10:15:42.791Z,100225.72
2023-03-22T10:16:47.179Z,100227.34
2023-03-22T10:17:54.842Z,100221.94
2023-03-22T10:19:02.351Z,100223.59
2023-03-22T10:20:10.140Z,100218.19
2023-03-22T10:21:13.393Z,100215.50
2023-03-22T10:22:16.241Z,100215.50
2023-03-22T10:23:21.443Z,100218.97
2023-03-22T10:24:33.921Z,100218.94
2023-03-22T10:25:41.976Z,100218.00
2023-03-22T10:26:49.819Z,100221.44
2023-03-22T10:27:57.999Z,100222.19
2023-03-22T10:29:05.021Z,100218.59
2023-03-22T10:30:28.246Z,100219.44
2023-03-22T10:31:32.619Z,100221.06
2023-03-22T10:32:54.982Z,100216.63
2023-03-22T10:34:02.661Z,100226.16
2023-03-22T10:35:04.510Z,100225.16
2023-03-22T10:36:09.344Z,100215.50
2023-03-22T10:37:15.675Z,100217.22
2023-03-22T10:38:21.029Z,100213.69
2023-03-22T10:39:22.646Z,100210.16
2023-03-22T10:40:31.616Z,100221.59
2023-03-22T10:41:36.236Z,100225.22
2023-03-22T10:42:40.278Z,100225.22
2023-03-22T10:43:42.578Z,100226.09
2023-03-22T10:44:48.994Z,100220.91
2023-03-22T10:45:56.860Z,100226.09
2023-03-22T10:47:00.025Z,100229.50
2023-03-22T10:48:11.715Z,100226.94
2023-03-22T10:49:17.553Z,100226.88
2023-03-22T10:50:26.530Z,100224.31
2023-03-22T10:51:30.340Z,100235.69
2023-03-22T10:52:39.821Z,100236.63
2023-03-22T10:53:46.927Z,100236.63
2023-03-22T10:55:05.851Z,100233.94
2023-03-22T10:56:20.315Z,100232.94
2023-03-22T10:57:26.662Z,100226.78
2023-03-22T10:58:33.895Z,100219.69
2023-03-22T11:00:20.739Z,100226.72
2023-03-22T11:01:40.855Z,100230.09
2023-03-22T11:02:54.155Z,100222.94
2023-03-22T11:04:16.978Z,100227.19
2023-03-22T11:05:39.875Z,100227.97
2023-03-22T11:06:56.084Z,100229.56
2023-03-22T11:08:09.521Z,100223.16
2023-03-22T11:09:28.108Z,100223.88
2023-03-22T11:10:35.625Z,100224.50
2023-03-22T11:11:51.243Z,100219.09
2023-03-22T11:12:59.421Z,100227.66
2023-03-22T11:14:07.066Z,100224.09
2023-03-22T11:15:32.162Z,100223.13
2023-03-22T11:16:52.756Z,100218.72
2023-03-22T11:17:59.081Z,100229.19
2023-03-22T11:19:01.566Z,100233.47
2023-03-22T11:20:13.124Z,100234.22
2023-03-22T11:21:16.869Z,100226.31
2023-03-22T11:22:44.840Z,100228.91
2023-03-22T11:23:58.459Z,100235.09
2023-03-22T11:25:11.930Z,100224.41
2023-03-22T11:26:15.350Z,100227.91
2023-03-22T11:27:30.314Z,100231.41
2023-03-22T11:28:39.593Z,100235.75
2023-03-22T11:29:49.186Z,100239.25
2023-03-22T11:30:59.936Z,100225.13
2023-03-22T11:32:01.862Z,100232.25
2023-03-22T11:33:16.915Z,100238.41
2023-03-22T11:34:20.544Z,100238.31
2023-03-22T11:35:29.514Z,100228.78
2023-03-22T11:36:32.345Z,100236.59
2023-03-22T11:37:41.392Z,100241.81
2023-03-22T11:38:48.275Z,100236.59
2023-03-22T11:39:50.803Z,100232.19
2023-03-22T11:40:57.684Z,100224.25
2023-03-22T11:42:01.792Z,100235.69
2023-03-22T11:43:20.312Z,100226.81
2023-03-22T11:44:22.913Z,100232.09
2023-03-22T11:45:29.585Z,100232.09
2023-03-22T11:46:34.429Z,100227.78
2023-03-22T11:47:50.560Z,100231.34
2023-03-22T11:48:53.094Z,100226.06
2023-03-22T11:49:57.257Z,100236.53
2023-03-22T11:51:06.857Z,100224.19
2023-03-22T11:52:15.971Z,100237.31
2023-03-22T11:53:22.642Z,100231.97
2023-03-22T11:54:24.264Z,100227.56
2023-03-22T11:55:26.328Z,100224.84
2023-03-22T11:56:28.911Z,100220.38
2023-03-22T11:57:33.873Z,100221.13
2023-03-22T11:58:50.555Z,100228.06
2023-03-22T11:59:58.584Z,100226.25
2023-03-22T12:01:03.486Z,100235.03
2023-03-22T12:02:05.379Z,100230.63
2023-03-22T12:03:10.719Z,100222.78
2023-03-22T12:04:17.769Z,100214.94
2023-03-22T12:05:33.079Z,100226.34
2023-03-22T12:06:39.639Z,100223.69
2023-03-22T12:07:44.180Z,100219.31
2023-03-22T12:09:00.464Z,100219.31
2023-03-22T12:10:06.154Z,100217.50
2023-03-22T12:11:14.603Z,100212.16
2023-03-22T12:12:33.544Z,100207.66
2023-03-22T12:13:37.562Z,100215.44
2023-03-22T12:14:51.952Z,100211.94
2023-03-22T12:16:02.217Z,100211.09
2023-03-22T12:17:10.780Z,100216.28
2023-03-22T12:18:14.741Z,100212.81
2023-03-22T12:19:28.752Z,100212.94
2023-03-22T12:20:35.979Z,100223.63
2023-03-22T12:21:38.465Z,100213.16
2023-03-22T12:22:46.944Z,100209.75
2023-03-22T12:23:50.593Z,100208.03
2023-03-22T12:24:52.150Z,100205.41
2023-03-22T12:25:54.340Z,100202.75
2023-03-22T12:27:04.846Z,100210.66
2023-03-22T12:28:09.427Z,100215.13
2023-03-22T12:29:21.279Z,100215.13
2023-03-22T12:30:25.198Z,100216.94
2023-03-22T12:31:38.292Z,100211.75
2023-03-22T12:32:50.630Z,100218.84
2023-03-22T12:33:54.221Z,100211.00
2023-03-22T12:35:05.462Z,100221.63
2023-03-22T12:36:20.582Z,100213.72
2023-03-22T12:37:31.499Z,100202.41
2023-03-22T12:38:48.992Z,100208.44
2023-03-22T12:39:54.343Z,100219.06
2023-03-22T12:40:58.029Z,100204.16
2023-03-22T12:42:04.386Z,100220.94
2023-03-22T12:43:14.157Z,100215.75
2023-03-22T12:44:24.739Z,100202.59
2023-03-22T12:45:29.465Z,100200.91
2023-03-22T12:46:35.549Z,100198.28
2023-03-22T12:47:45.557Z,100203.63
2023-03-22T12:49:10.276Z,100202.75
2023-03-22T12:50:18.007Z,100199.34
2023-03-22T12:51:21.021Z,100206.38
2023-03-22T12:52:37.731Z,100208.22
2023-03-22T12:53:51.379Z,100207.41
2023-03-22T12:54:53.651Z,100210.91
2023-03-22T12:55:57.269Z,100218.81
2023-03-22T12:56:58.879Z,100207.38